Time;durP1;ratioP1;P1;durP2;ratioP2;P2;SDS_P1;SDS_P2;PMS_P1;PMS_P2;Temp;Humidity;BMP_temperature;BMP_pressure;BME280_temperature;BME280_humidity;BME280_pressure;Samples;Min_cycle;Max_cycle;Signal;HPM_P1;HPM_P2
2022/11/08 00:01:59;;;;;;;14.52;3.78;;;12.80;99.90;;;;;;4909680;29;20088;-78
2022/11/08 00:04:25;;;;;;;11.32;3.22;;;12.80;99.90;;;;;;4908865;29;20028;-81
2022/11/08 00:15:05;;;;;;;10.10;4.07;;;12.70;99.90;;;;;;4908835;29;20044;-82
2022/11/08 00:17:30;;;;;;;7.75;3.83;;;12.70;99.90;;;;;;4908398;29;20025;-79
2022/11/08 00:19:56;;;;;;;13.45;4.00;;;12.60;99.90;;;;;;4892030;29;20048;-78
2022/11/08 00:22:23;;;;;;;13.70;3.92;;;12.60;99.90;;;;;;4908429;29;20037;-82
2022/11/08 00:24:50;;;;;;;20.65;3.83;;;12.60;99.90;;;;;;4907041;29;20514;-75
2022/11/08 00:27:19;;;;;;;13.90;3.30;;;12.60;99.90;;;;;;4905989;29;20033;-72
2022/11/08 00:29:44;;;;;;;10.60;3.97;;;12.60;99.90;;;;;;4892550;29;20029;-77
2022/11/08 00:32:16;;;;;;;9.75;3.25;;;12.50;99.90;;;;;;4893051;29;20033;-72
2022/11/08 00:34:42;;;;;;;12.45;3.85;;;12.50;99.90;;;;;;4908266;29;20084;-78
2022/11/08 00:37:08;;;;;;;11.82;3.00;;;12.50;99.90;;;;;;4893243;29;20033;-75
2022/11/08 00:39:34;;;;;;;12.07;3.65;;;12.50;99.90;;;;;;4892841;29;20056;-75
2022/11/08 00:42:00;;;;;;;13.45;3.30;;;12.50;99.90;;;;;;4909708;29;20032;-77
2022/11/08 00:44:25;;;;;;;9.32;3.05;;;12.60;99.90;;;;;;4910015;29;20029;-78
2022/11/08 00:46:51;;;;;;;11.50;3.03;;;12.50;99.90;;;;;;4909437;29;20039;-77
2022/11/08 00:49:17;;;;;;;10.77;3.30;;;12.50;99.90;;;;;;4909783;29;20032;-75
2022/11/08 00:51:42;;;;;;;13.27;3.30;;;12.50;99.90;;;;;;4909468;29;20541;-77
2022/11/08 00:54:14;;;;;;;15.15;3.90;;;12.60;99.90;;;;;;4892165;29;20033;-77
2022/11/08 00:56:40;;;;;;;9.43;3.63;;;12.50;99.90;;;;;;4885079;29;20032;-77
2022/11/08 00:59:06;;;;;;;10.63;3.08;;;12.60;99.90;;;;;;4891745;29;20044;-77
2022/11/08 01:01:31;;;;;;;15.13;3.40;;;12.50;99.90;;;;;;4907951;29;20044;-75
2022/11/08 01:03:57;;;;;;;11.05;3.45;;;12.60;99.90;;;;;;4908448;29;20040;-77
2022/11/08 01:06:25;;;;;;;7.47;3.35;;;12.60;99.90;;;;;;4892402;29;20036;-76
2022/11/08 01:08:50;;;;;;;9.27;3.42;;;12.50;99.90;;;;;;4892462;29;20549;-77
2022/11/08 01:11:19;;;;;;;11.23;2.95;;;12.60;99.90;;;;;;4909228;29;20063;-79
2022/11/08 01:13:55;;;;;;;13.43;3.55;;;12.60;99.90;;;;;;4908570;29;20027;-76
2022/11/08 01:16:23;;;;;;;12.30;3.28;;;12.60;99.90;;;;;;4891186;29;20032;-77
2022/11/08 01:18:50;;;;;;;9.82;3.35;;;12.60;99.90;;;;;;4909304;29;20036;-77
2022/11/08 01:21:17;;;;;;;10.65;2.97;;;12.60;99.90;;;;;;4909506;29;20075;-80
2022/11/08 01:23:44;;;;;;;19.83;3.47;;;12.60;99.90;;;;;;4908045;29;20049;-75
2022/11/08 01:26:15;;;;;;;12.13;2.80;;;12.60;99.90;;;;;;4891221;29;21037;-78
2022/11/08 01:28:41;;;;;;;8.38;2.97;;;12.70;99.90;;;;;;4891674;29;20515;-76
2022/11/08 01:31:12;;;;;;;11.50;3.00;;;12.70;99.90;;;;;;4908962;29;20033;-76
2022/11/08 01:33:38;;;;;;;5.70;2.70;;;12.60;99.90;;;;;;4907242;29;20074;-76
2022/11/08 01:36:09;;;;;;;9.40;2.97;;;12.60;99.90;;;;;;4902648;29;20043;-79
2022/11/08 01:38:35;;;;;;;16.15;3.63;;;12.60;99.90;;;;;;4896041;29;20583;-77
2022/11/08 01:41:01;;;;;;;13.68;3.67;;;12.60;99.90;;;;;;4898981;29;20060;-75
2022/11/08 01:43:35;;;;;;;15.48;3.60;;;12.60;99.90;;;;;;4901314;29;20044;-75
2022/11/08 01:46:18;;;;;;;17.95;3.33;;;12.60;99.90;;;;;;4898672;29;20029;-74
2022/11/08 01:48:47;;;;;;;8.45;2.90;;;12.60;99.90;;;;;;4896986;29;20421;-76
2022/11/08 01:51:16;;;;;;;11.93;2.95;;;12.50;99.90;;;;;;4880387;29;20033;-78
2022/11/08 01:53:43;;;;;;;9.25;3.15;;;12.60;99.90;;;;;;4899722;29;20096;-76
2022/11/08 01:56:10;;;;;;;9.88;2.90;;;12.60;99.90;;;;;;4882471;29;20100;-77
2022/11/08 01:58:38;;;;;;;13.43;3.20;;;12.60;99.90;;;;;;4895542;29;20029;-76
2022/11/08 02:01:04;;;;;;;9.15;3.38;;;12.50;99.90;;;;;;4881808;29;20048;-76
2022/11/08 02:03:33;;;;;;;12.98;3.35;;;12.50;99.90;;;;;;4880123;29;20073;-80
2022/11/08 02:06:00;;;;;;;15.50;3.38;;;12.50;99.90;;;;;;4897636;29;20108;-81
2022/11/08 02:08:33;;;;;;;9.68;3.35;;;12.50;99.90;;;;;;4897208;29;20032;-74
2022/11/08 02:10:59;;;;;;;11.25;3.38;;;12.50;99.90;;;;;;4881198;29;20062;-80
2022/11/08 02:13:27;;;;;;;11.90;3.33;;;12.40;99.90;;;;;;4882572;29;20478;-76
2022/11/08 02:15:53;;;;;;;13.38;3.10;;;12.40;99.90;;;;;;4880464;29;20031;-80
2022/11/08 02:18:21;;;;;;;9.93;3.08;;;12.40;99.90;;;;;;4881123;29;20029;-75
2022/11/08 02:21:21;;;;;;;10.07;3.35;;;12.30;99.90;;;;;;4900677;29;20060;-75
2022/11/08 02:24:05;;;;;;;11.32;3.28;;;12.30;99.90;;;;;;4905632;29;20043;-77
2022/11/08 02:26:32;;;;;;;11.73;3.33;;;12.20;99.90;;;;;;4885541;29;20062;-81
2022/11/08 02:29:18;;;;;;;11.85;3.10;;;12.20;99.90;;;;;;4883481;29;20037;-81
2022/11/08 02:31:44;;;;;;;12.50;3.15;;;12.20;99.90;;;;;;4881001;29;20033;-78
2022/11/08 02:34:10;;;;;;;11.27;3.22;;;12.20;99.90;;;;;;4886183;29;20039;-78
2022/11/08 02:36:35;;;;;;;11.13;3.10;;;12.20;99.90;;;;;;4897118;29;20057;-79
2022/11/08 02:39:02;;;;;;;12.93;3.00;;;12.10;99.90;;;;;;4885561;29;20092;-83
2022/11/08 02:41:27;;;;;;;16.67;3.85;;;12.10;99.90;;;;;;4885520;29;20093;-80
2022/11/08 02:43:53;;;;;;;16.25;3.45;;;12.00;99.90;;;;;;4900048;29;20029;-79
2022/11/08 02:46:18;;;;;;;10.68;2.75;;;12.10;99.90;;;;;;4906720;29;20063;-77
2022/11/08 02:48:44;;;;;;;10.77;3.10;;;12.00;99.90;;;;;;4884267;29;20059;-77
2022/11/08 02:51:10;;;;;;;15.70;2.97;;;12.00;99.90;;;;;;4900579;29;20033;-77
2022/11/08 02:53:35;;;;;;;10.48;3.65;;;12.10;99.90;;;;;;4899640;29;20048;-75
2022/11/08 02:56:01;;;;;;;12.70;2.97;;;12.00;99.90;;;;;;4884715;29;20028;-80
2022/11/08 02:58:26;;;;;;;9.40;3.25;;;12.00;99.90;;;;;;4904706;29;20040;-81
2022/11/08 03:00:53;;;;;;;6.97;2.72;;;12.00;99.90;;;;;;4882749;29;20043;-81
2022/11/08 03:03:18;;;;;;;8.80;3.38;;;12.00;99.90;;;;;;4896602;29;20205;-86
2022/11/08 03:05:46;;;;;;;15.35;3.70;;;12.00;99.90;;;;;;4893903;29;20028;-84
2022/11/08 03:08:12;;;;;;;8.25;3.05;;;12.00;99.90;;;;;;4893944;29;20025;-79
2022/11/08 03:10:38;;;;;;;9.75;3.45;;;11.90;99.90;;;;;;4893855;29;20100;-87
2022/11/08 03:13:05;;;;;;;13.02;2.70;;;11.90;99.90;;;;;;4911448;29;20032;-77
2022/11/08 03:15:31;;;;;;;17.48;3.60;;;11.90;99.90;;;;;;4911256;29;20052;-79
2022/11/08 03:17:58;;;;;;;12.48;2.75;;;11.80;99.90;;;;;;4911484;29;20053;-77
2022/11/08 03:20:25;;;;;;;8.68;2.97;;;11.80;99.90;;;;;;4910705;29;20047;-79
2022/11/08 03:22:59;;;;;;;8.40;2.95;;;11.80;99.90;;;;;;4893271;29;20398;-79
2022/11/08 03:25:25;;;;;;;11.70;2.97;;;11.70;99.90;;;;;;4910905;29;20032;-77
2022/11/08 03:27:51;;;;;;;8.00;3.13;;;11.60;99.90;;;;;;4910839;29;20285;-78
2022/11/08 03:30:16;;;;;;;19.23;3.05;;;11.60;99.90;;;;;;4893381;29;20031;-81
2022/11/08 03:32:45;;;;;;;14.27;3.88;;;11.60;99.90;;;;;;4911485;29;20036;-78
2022/11/08 03:35:12;;;;;;;13.85;3.25;;;11.50;99.90;;;;;;4910421;29;20036;-78
2022/11/08 03:37:37;;;;;;;10.70;3.40;;;11.50;99.90;;;;;;4909465;29;20028;-78
2022/11/08 03:40:04;;;;;;;12.65;3.30;;;11.50;99.90;;;;;;4911163;29;20036;-77
2022/11/08 03:42:30;;;;;;;12.73;2.65;;;11.50;99.90;;;;;;4893688;29;20037;-76
2022/11/08 03:44:55;;;;;;;14.02;3.67;;;11.50;99.90;;;;;;4911082;29;20029;-76
2022/11/08 03:47:21;;;;;;;9.00;3.30;;;11.50;99.90;;;;;;4911334;29;20036;-82
2022/11/08 03:49:47;;;;;;;14.85;3.88;;;11.50;99.90;;;;;;4893236;29;20043;-78
2022/11/08 03:52:12;;;;;;;10.95;3.33;;;11.50;99.90;;;;;;4910756;29;20047;-78
2022/11/08 03:54:38;;;;;;;10.45;3.13;;;11.50;99.90;;;;;;4910338;29;20084;-77
2022/11/08 03:57:03;;;;;;;10.27;2.85;;;11.50;99.90;;;;;;4910719;29;20088;-79
2022/11/08 03:59:29;;;;;;;6.55;2.70;;;11.40;99.90;;;;;;4910442;29;20073;-85
2022/11/08 04:01:55;;;;;;;11.38;3.28;;;11.40;99.90;;;;;;4910112;29;20052;-80
2022/11/08 04:04:20;;;;;;;10.77;3.42;;;11.30;99.90;;;;;;4910065;29;20039;-73
2022/11/08 04:06:46;;;;;;;12.20;2.85;;;11.40;99.90;;;;;;4910787;29;20056;-77
2022/11/08 04:09:12;;;;;;;11.65;3.20;;;11.40;99.90;;;;;;4909355;29;20047;-79
2022/11/08 04:17:05;;;;;;;19.85;3.33;;;11.30;99.90;;;;;;4910637;29;20043;-77
2022/11/08 04:22:15;;;;;;;13.07;3.05;;;11.30;99.90;;;;;;4910367;29;20068;-76
2022/11/08 04:24:41;;;;;;;11.15;3.47;;;11.20;99.90;;;;;;4909771;29;20132;-76
2022/11/08 04:27:06;;;;;;;11.63;2.92;;;11.30;99.90;;;;;;4892846;29;20052;-74
2022/11/08 04:29:32;;;;;;;14.15;3.60;;;11.30;99.90;;;;;;4910077;29;20039;-77
2022/11/08 04:31:58;;;;;;;10.80;3.15;;;11.30;99.90;;;;;;4893201;29;20037;-79
2022/11/08 04:34:26;;;;;;;14.73;3.40;;;11.20;99.90;;;;;;4909819;29;20032;-79
2022/11/08 04:36:52;;;;;;;9.23;2.90;;;11.20;99.90;;;;;;4910265;29;20071;-80
2022/11/08 04:39:18;;;;;;;13.60;3.40;;;11.20;99.90;;;;;;4893594;29;20063;-77
2022/11/08 04:41:43;;;;;;;21.50;3.67;;;11.20;99.90;;;;;;4892501;29;20148;-78
2022/11/08 04:44:10;;;;;;;9.57;2.85;;;11.20;99.90;;;;;;4908798;29;20032;-77
2022/11/08 04:46:36;;;;;;;19.67;3.92;;;11.20;99.90;;;;;;4892991;29;20028;-75
2022/11/08 04:49:02;;;;;;;9.70;3.13;;;11.10;99.90;;;;;;4909636;29;20115;-79
2022/11/08 04:51:30;;;;;;;9.57;2.70;;;11.10;99.90;;;;;;4892739;29;20025;-81
2022/11/08 04:53:57;;;;;;;13.75;3.05;;;11.20;99.90;;;;;;4908232;29;20417;-76
2022/11/08 04:56:24;;;;;;;7.50;2.92;;;11.10;99.90;;;;;;4892947;29;20028;-79
2022/11/08 04:58:52;;;;;;;15.35;3.38;;;11.20;99.90;;;;;;4892531;29;20074;-74
2022/11/08 05:01:22;;;;;;;17.80;3.53;;;11.20;99.90;;;;;;4908302;29;20044;-71
2022/11/08 05:03:49;;;;;;;12.73;3.13;;;11.20;99.90;;;;;;4908654;29;20060;-81
2022/11/08 05:06:21;;;;;;;8.45;3.03;;;11.20;99.90;;;;;;4892576;29;20033;-79
2022/11/08 05:08:47;;;;;;;12.55;2.80;;;11.20;99.90;;;;;;4908875;29;20039;-78
2022/11/08 05:11:17;;;;;;;12.73;3.03;;;11.20;99.90;;;;;;4909540;29;20044;-79
2022/11/08 05:13:42;;;;;;;15.73;3.58;;;11.20;99.90;;;;;;4892500;29;20032;-74
2022/11/08 05:16:13;;;;;;;9.35;3.25;;;11.30;99.90;;;;;;4891999;29;20029;-74
2022/11/08 05:18:39;;;;;;;13.20;3.15;;;11.20;99.90;;;;;;4909418;29;20063;-76
2022/11/08 05:23:50;;;;;;;;;;;11.20;99.90;;;;;;4909010;29;20087;-77
2022/11/08 05:26:18;;;;;;;10.70;2.97;;;11.20;99.90;;;;;;4892164;29;19911;-79
2022/11/08 05:28:44;;;;;;;9.45;3.20;;;11.20;99.90;;;;;;4892374;29;20032;-77
2022/11/08 05:31:10;;;;;;;8.23;2.85;;;11.20;99.90;;;;;;4908719;29;20032;-77
2022/11/08 05:33:36;;;;;;;12.35;2.60;;;11.20;99.90;;;;;;4909212;29;20029;-76
2022/11/08 05:36:07;;;;;;;9.80;3.58;;;11.10;99.90;;;;;;4892014;29;20035;-76
2022/11/08 05:38:33;;;;;;;7.55;2.80;;;11.10;99.90;;;;;;4891782;29;20441;-78
2022/11/08 05:41:03;;;;;;;10.00;3.15;;;11.10;99.90;;;;;;4892099;29;20103;-78
2022/11/08 05:43:28;;;;;;;15.43;3.40;;;11.10;99.90;;;;;;4892181;29;20036;-83
2022/11/08 05:45:54;;;;;;;7.18;3.45;;;11.10;99.90;;;;;;4892430;29;20088;-82
2022/11/08 05:48:20;;;;;;;14.93;3.08;;;11.00;99.90;;;;;;4909428;29;20057;-83
2022/11/08 05:50:47;;;;;;;11.15;3.35;;;11.00;99.90;;;;;;4908132;29;20028;-77
2022/11/08 05:53:13;;;;;;;17.35;3.55;;;11.00;99.90;;;;;;4891838;29;20033;-80
2022/11/08 05:55:38;;;;;;;11.00;3.28;;;11.00;99.90;;;;;;4908980;29;20087;-78
2022/11/08 05:58:04;;;;;;;11.93;3.63;;;11.00;99.90;;;;;;4908192;29;20036;-78
2022/11/08 06:00:30;;;;;;;13.60;3.28;;;10.90;99.90;;;;;;4906763;29;20037;-79
2022/11/08 06:02:55;;;;;;;13.07;3.85;;;10.90;99.90;;;;;;4891118;29;20055;-82
2022/11/08 06:05:21;;;;;;;6.45;3.20;;;10.90;99.90;;;;;;4907746;29;20073;-83
2022/11/08 06:07:47;;;;;;;14.45;3.13;;;10.80;99.90;;;;;;4908444;29;20114;-82
2022/11/08 06:10:13;;;;;;;13.02;3.10;;;10.80;99.90;;;;;;4891505;29;20063;-78
2022/11/08 06:12:38;;;;;;;8.45;3.17;;;10.80;99.90;;;;;;4905804;29;20025;-83
2022/11/08 06:15:06;;;;;;;11.63;3.28;;;10.70;99.90;;;;;;4892901;29;20040;-75
2022/11/08 06:17:31;;;;;;;18.00;3.47;;;10.70;99.90;;;;;;4909209;29;20104;-79
2022/11/08 06:19:57;;;;;;;14.40;3.60;;;10.70;99.90;;;;;;4911515;29;20072;-78
2022/11/08 06:22:23;;;;;;;11.57;3.17;;;10.70;99.90;;;;;;4894703;29;20032;-84
2022/11/08 06:24:48;;;;;;;18.70;4.00;;;10.60;99.90;;;;;;4910465;29;20547;-81
2022/11/08 06:27:15;;;;;;;12.55;3.17;;;10.60;99.90;;;;;;4908213;29;20043;-75
2022/11/08 06:29:43;;;;;;;12.80;3.55;;;10.60;99.90;;;;;;4911680;29;20044;-74
2022/11/08 06:32:09;;;;;;;16.65;3.65;;;10.60;99.90;;;;;;4894056;29;20049;-75
2022/11/08 06:34:35;;;;;;;8.93;2.83;;;10.50;99.90;;;;;;4911115;29;20065;-74
2022/11/08 06:37:01;;;;;;;9.95;3.05;;;10.60;99.90;;;;;;4890684;29;20052;-76
2022/11/08 06:39:26;;;;;;;12.52;3.15;;;10.50;99.90;;;;;;4904906;29;20080;-78
2022/11/08 06:41:52;;;;;;;13.38;3.17;;;10.50;99.90;;;;;;4885663;29;20029;-74
2022/11/08 06:44:17;;;;;;;9.85;3.20;;;10.50;99.90;;;;;;4909108;29;20040;-75
2022/11/08 06:46:43;;;;;;;9.05;3.72;;;10.50;99.90;;;;;;4907870;29;20048;-75
2022/11/08 06:49:09;;;;;;;11.73;3.58;;;10.50;99.90;;;;;;4909718;29;20116;-75
2022/11/08 06:51:35;;;;;;;11.32;3.25;;;10.50;99.90;;;;;;4888123;29;20482;-75
2022/11/08 06:54:02;;;;;;;9.73;3.40;;;10.50;99.90;;;;;;4891823;29;20060;-74
2022/11/08 06:56:28;;;;;;;11.75;3.33;;;10.50;99.90;;;;;;4893395;29;20029;-74
2022/11/08 06:58:54;;;;;;;11.55;3.67;;;10.50;99.90;;;;;;4892521;29;20025;-76
2022/11/08 07:01:19;;;;;;;21.95;3.95;;;10.50;99.90;;;;;;4893422;29;20096;-73
2022/11/08 07:03:45;;;;;;;12.50;3.90;;;10.50;99.90;;;;;;4893659;29;20033;-74
2022/11/08 07:06:11;;;;;;;16.25;3.80;;;10.60;99.90;;;;;;4910205;29;20038;-73
2022/11/08 07:08:36;;;;;;;12.57;3.50;;;10.60;99.90;;;;;;4901451;29;20033;-75
2022/11/08 07:11:03;;;;;;;11.10;3.80;;;10.60;99.90;;;;;;4874686;29;20029;-76
2022/11/08 07:13:28;;;;;;;16.48;3.75;;;10.60;99.90;;;;;;4891408;29;20490;-76
2022/11/08 07:15:58;;;;;;;8.85;3.42;;;10.60;99.90;;;;;;4874872;29;20060;-75
2022/11/08 07:18:24;;;;;;;8.40;3.22;;;10.60;99.90;;;;;;4875142;29;20033;-73
2022/11/08 07:20:51;;;;;;;11.23;3.30;;;10.70;99.90;;;;;;4908868;29;20151;-75
2022/11/08 07:23:16;;;;;;;10.65;3.72;;;10.70;99.90;;;;;;4909693;29;20104;-74
2022/11/08 07:25:42;;;;;;;10.93;3.15;;;10.80;99.90;;;;;;4909752;29;20132;-74
2022/11/08 07:28:16;;;;;;;7.90;3.53;;;10.80;99.90;;;;;;4911243;29;20096;-74
2022/11/08 07:30:42;;;;;;;9.25;3.53;;;10.90;99.90;;;;;;4910225;29;20039;-72
2022/11/08 07:33:07;;;;;;;15.45;3.90;;;11.00;99.90;;;;;;4893457;29;20393;-74
2022/11/08 07:35:33;;;;;;;10.32;3.67;;;11.10;99.90;;;;;;4892318;29;20028;-75
2022/11/08 07:37:59;;;;;;;13.57;3.53;;;11.20;99.90;;;;;;4903472;29;20092;-74
2022/11/08 07:40:25;;;;;;;9.57;2.85;;;11.40;99.90;;;;;;4909646;29;20049;-72
2022/11/08 07:42:51;;;;;;;8.68;3.25;;;11.50;99.90;;;;;;4907726;29;20052;-74
2022/11/08 07:45:18;;;;;;;8.77;3.10;;;11.60;99.90;;;;;;4889235;29;20048;-74
2022/11/08 07:47:43;;;;;;;12.38;2.78;;;11.70;99.90;;;;;;4889678;29;20039;-71
2022/11/08 07:50:09;;;;;;;9.73;3.15;;;11.80;99.90;;;;;;4903189;29;20413;-74
2022/11/08 07:52:35;;;;;;;11.23;3.45;;;11.90;99.90;;;;;;4888566;29;20037;-74
2022/11/08 07:55:01;;;;;;;12.50;3.22;;;12.00;99.90;;;;;;4907794;29;20073;-74
2022/11/08 07:57:26;;;;;;;7.85;2.58;;;12.00;99.90;;;;;;4890508;29;20059;-77
2022/11/08 07:59:52;;;;;;;6.28;2.80;;;12.00;99.90;;;;;;4887799;29;20041;-77
2022/11/08 08:02:18;;;;;;;15.15;2.97;;;12.00;99.90;;;;;;4907840;29;20565;-74
2022/11/08 08:04:44;;;;;;;11.77;2.53;;;11.90;99.90;;;;;;4900182;29;20036;-75
2022/11/08 08:07:11;;;;;;;10.77;2.50;;;11.90;99.90;;;;;;4898492;29;20036;-75
2022/11/08 08:09:36;;;;;;;5.95;2.90;;;11.90;99.90;;;;;;4895848;29;20035;-74
2022/11/08 08:12:03;;;;;;;11.52;3.15;;;11.90;99.90;;;;;;4912492;29;20036;-73
2022/11/08 08:14:28;;;;;;;8.93;2.88;;;11.90;99.90;;;;;;4895975;29;20033;-75
2022/11/08 08:16:54;;;;;;;9.75;2.78;;;12.00;99.90;;;;;;4911335;29;20029;-77
2022/11/08 08:19:20;;;;;;;10.25;2.88;;;12.10;99.90;;;;;;4911114;29;20036;-72
2022/11/08 08:21:45;;;;;;;5.85;2.63;;;12.20;99.90;;;;;;4892822;29;20039;-74
2022/11/08 08:24:11;;;;;;;7.45;2.55;;;12.30;99.90;;;;;;4896666;29;21021;-75
2022/11/08 08:26:37;;;;;;;8.88;2.72;;;12.30;99.90;;;;;;4890679;29;20040;-74
2022/11/08 08:29:03;;;;;;;11.00;2.50;;;12.40;99.90;;;;;;4874619;29;20025;-73
2022/11/08 08:31:29;;;;;;;12.20;3.22;;;12.40;99.90;;;;;;4890282;29;20037;-75
2022/11/08 08:33:55;;;;;;;15.38;2.50;;;12.40;99.90;;;;;;4889665;29;20033;-74
2022/11/08 08:36:21;;;;;;;11.15;2.95;;;12.50;99.90;;;;;;4890588;29;20033;-77
2022/11/08 08:38:46;;;;;;;8.13;2.55;;;12.50;99.90;;;;;;4891008;29;20029;-73
2022/11/08 08:41:12;;;;;;;9.45;2.70;;;12.50;99.90;;;;;;4890113;29;20161;-74
2022/11/08 08:43:41;;;;;;;10.63;3.03;;;12.50;99.90;;;;;;4890982;29;20410;-76
2022/11/08 08:46:06;;;;;;;7.03;2.47;;;12.50;99.90;;;;;;4891009;29;20053;-75
2022/11/08 08:48:32;;;;;;;7.80;2.90;;;12.50;99.90;;;;;;4888847;29;20029;-74
2022/11/08 08:50:58;;;;;;;6.85;2.70;;;12.50;99.90;;;;;;4859087;29;20030;-74
2022/11/08 08:53:24;;;;;;;9.65;2.92;;;12.50;99.90;;;;;;4882301;29;20043;-77
2022/11/08 08:55:51;;;;;;;12.73;2.67;;;12.60;99.90;;;;;;4890534;29;20052;-75
2022/11/08 08:58:18;;;;;;;8.77;2.63;;;12.60;99.90;;;;;;4889808;29;20055;-77
2022/11/08 09:00:43;;;;;;;9.90;2.70;;;12.70;99.90;;;;;;4879662;29;20048;-77
2022/11/08 09:03:10;;;;;;;8.80;3.13;;;12.70;99.90;;;;;;4888404;29;20037;-74
2022/11/08 09:05:40;;;;;;;7.13;2.72;;;12.80;99.90;;;;;;4888907;29;20040;-73
2022/11/08 09:08:06;;;;;;;7.88;2.78;;;12.80;99.90;;;;;;4883878;29;20033;-75
2022/11/08 09:10:32;;;;;;;9.70;3.22;;;12.80;99.90;;;;;;4872287;29;20065;-75
2022/11/08 09:12:58;;;;;;;8.45;2.78;;;12.80;99.90;;;;;;4885890;29;20107;-75
2022/11/08 09:15:24;;;;;;;10.95;3.10;;;12.80;99.90;;;;;;4888554;29;20081;-75
2022/11/08 09:17:52;;;;;;;9.15;2.65;;;12.80;99.90;;;;;;4870183;29;20033;-75
2022/11/08 09:20:18;;;;;;;9.98;2.78;;;12.80;99.90;;;;;;4887919;29;20123;-71
2022/11/08 09:22:44;;;;;;;11.15;2.80;;;12.80;99.90;;;;;;4871659;29;20097;-74
2022/11/08 09:25:09;;;;;;;6.50;2.17;;;12.80;99.90;;;;;;4908006;29;20096;-74
2022/11/08 09:27:35;;;;;;;5.53;2.40;;;12.80;99.90;;;;;;4889886;29;20080;-75
2022/11/08 09:30:01;;;;;;;5.60;2.53;;;12.80;99.90;;;;;;4908064;29;20040;-74
2022/11/08 09:32:27;;;;;;;7.20;2.63;;;12.80;99.90;;;;;;4905904;29;20032;-74
2022/11/08 09:34:54;;;;;;;5.85;2.50;;;12.90;99.90;;;;;;4907246;29;20052;-73
2022/11/08 09:37:20;;;;;;;5.03;1.92;;;12.90;99.90;;;;;;4905707;29;20751;-75
2022/11/08 09:39:46;;;;;;;6.28;2.53;;;13.00;99.90;;;;;;4906611;29;20082;-75
2022/11/08 09:42:47;;;;;;;10.52;2.60;;;13.10;99.90;;;;;;4887444;29;20041;-73
2022/11/08 09:45:18;;;;;;;6.78;2.38;;;13.10;99.90;;;;;;4863078;29;20062;-73
2022/11/08 09:47:49;;;;;;;6.05;2.58;;;13.30;99.90;;;;;;4901075;29;20036;-74
2022/11/08 09:50:34;;;;;;;7.45;2.45;;;13.40;99.90;;;;;;4906726;29;20044;-79
2022/11/08 09:53:02;;;;;;;;;;;13.40;99.90;;;;;;4908975;29;20040;-76
2022/11/08 09:55:37;;;;;;;7.75;2.70;;;13.40;99.90;;;;;;4905547;29;19911;-75
2022/11/08 09:58:14;;;;;;;7.10;2.47;;;13.40;99.90;;;;;;4899684;29;20028;-77
2022/11/08 10:00:40;;;;;;;5.75;2.53;;;13.50;99.90;;;;;;4903340;29;20073;-77
2022/11/08 10:03:14;;;;;;;16.35;2.97;;;13.50;99.90;;;;;;4902169;29;20028;-74
2022/11/08 10:05:45;;;;;;;8.98;2.15;;;13.50;99.90;;;;;;4888985;29;20037;-74
2022/11/08 10:08:27;;;;;;;11.73;3.38;;;13.60;99.90;;;;;;4886938;29;20025;-77
2022/11/08 10:11:02;;;;;;;8.48;2.72;;;13.70;99.90;;;;;;4888246;29;20063;-74
2022/11/08 10:13:47;;;;;;;10.52;2.67;;;13.70;99.90;;;;;;4908631;29;20032;-75
2022/11/08 10:16:31;;;;;;;8.40;2.25;;;13.70;99.90;;;;;;4903381;29;20033;-77
2022/11/08 10:19:34;;;;;;;10.48;2.60;;;13.70;99.90;;;;;;4904342;29;20772;-73
2022/11/08 10:22:08;;;;;;;10.85;2.60;;;13.80;99.90;;;;;;4907076;29;20048;-75
2022/11/08 10:24:38;;;;;;;5.57;2.83;;;13.80;99.90;;;;;;4902329;29;20454;-74
2022/11/08 10:27:17;;;;;;;5.97;2.78;;;13.90;99.90;;;;;;4889367;29;20029;-74
2022/11/08 10:29:44;;;;;;;6.90;2.58;;;13.90;99.90;;;;;;4889747;29;20067;-77
2022/11/08 10:32:20;;;;;;;9.43;2.58;;;13.90;99.90;;;;;;4890381;29;20040;-76
2022/11/08 10:34:52;;;;;;;7.43;2.83;;;13.90;99.90;;;;;;4906626;29;20057;-76
2022/11/08 10:37:19;;;;;;;9.95;2.47;;;13.90;99.90;;;;;;4905739;29;20036;-76
2022/11/08 10:39:55;;;;;;;6.78;2.40;;;14.00;99.90;;;;;;4906181;29;20052;-74
2022/11/08 10:42:40;;;;;;;7.30;2.45;;;14.00;99.90;;;;;;4906063;29;20055;-73
2022/11/08 10:45:08;;;;;;;5.85;2.00;;;14.10;99.90;;;;;;4888278;29;20043;-71
2022/11/08 10:47:36;;;;;;;10.80;2.10;;;14.10;99.90;;;;;;4889300;29;20107;-76
2022/11/08 10:50:14;;;;;;;5.28;1.73;;;14.20;99.90;;;;;;4906957;29;20088;-75
2022/11/08 10:53:00;;;;;;;5.22;2.20;;;14.30;99.90;;;;;;4907712;29;20024;-73
2022/11/08 10:55:29;;;;;;;7.88;2.63;;;14.30;99.90;;;;;;4885291;29;20044;-74
2022/11/08 10:57:56;;;;;;;3.45;1.85;;;14.40;99.90;;;;;;4906718;29;20048;-76
2022/11/08 11:00:22;;;;;;;10.60;2.20;;;14.30;99.90;;;;;;4892337;29;20525;-76
2022/11/08 11:02:53;;;;;;;10.15;1.95;;;14.30;99.90;;;;;;4910806;29;20037;-77
2022/11/08 11:05:25;;;;;;;11.65;2.05;;;14.30;99.90;;;;;;4911257;29;20040;-75
2022/11/08 11:08:08;;;;;;;5.53;2.10;;;14.30;99.90;;;;;;4909755;29;20039;-73
2022/11/08 11:10:36;;;;;;;3.80;1.90;;;14.20;99.90;;;;;;4911008;29;20033;-75
2022/11/08 11:13:19;;;;;;;6.60;2.13;;;14.20;99.90;;;;;;4911822;29;20028;-74
2022/11/08 11:15:59;;;;;;;11.10;1.98;;;14.20;99.90;;;;;;4911133;29;20020;-74
2022/11/08 11:18:32;;;;;;;7.45;1.98;;;14.30;99.90;;;;;;4894854;29;20032;-74
2022/11/08 11:21:04;;;;;;;4.57;2.30;;;14.30;99.90;;;;;;4911011;29;20093;-74
2022/11/08 11:23:46;;;;;;;2.78;1.48;;;14.30;99.90;;;;;;4909722;29;20048;-73
2022/11/08 11:26:33;;;;;;;7.00;2.00;;;14.30;99.90;;;;;;4894364;29;20036;-73
2022/11/08 11:29:07;;;;;;;3.88;1.70;;;14.30;99.90;;;;;;4894385;29;20397;-73
2022/11/08 11:31:35;;;;;;;;;;;14.40;99.90;;;;;;4911575;29;20056;-75
2022/11/08 11:34:31;;;;;;;7.25;2.08;;;14.30;99.90;;;;;;4894222;29;19929;-75
2022/11/08 11:37:09;;;;;;;8.80;1.70;;;14.40;99.90;;;;;;4901423;29;20041;-73
2022/11/08 11:39:59;;;;;;;5.50;1.80;;;14.40;99.90;;;;;;4910163;29;20096;-76
2022/11/08 11:42:40;;;;;;;3.25;1.83;;;14.40;99.90;;;;;;4894136;29;20035;-75
2022/11/08 11:45:12;;;;;;;18.17;2.45;;;14.40;99.90;;;;;;4910602;29;20105;-76
2022/11/08 11:47:48;;;;;;;5.53;2.00;;;14.50;99.90;;;;;;4893262;29;20021;-74
2022/11/08 11:50:26;;;;;;;5.78;1.63;;;14.60;99.90;;;;;;4893615;29;20033;-75
2022/11/08 11:52:54;;;;;;;5.00;2.10;;;14.60;99.90;;;;;;4893969;29;20048;-77
2022/11/08 11:55:35;;;;;;;12.07;2.38;;;14.70;99.90;;;;;;4909661;29;20504;-73
2022/11/08 11:58:28;;;;;;;6.95;2.15;;;14.80;99.90;;;;;;4910806;29;20037;-76
2022/11/08 12:01:06;;;;;;;3.35;1.55;;;14.90;99.90;;;;;;4892952;29;20048;-74
2022/11/08 12:03:58;;;;;;;3.22;1.63;;;15.00;99.90;;;;;;4908168;29;20065;-75
2022/11/08 12:06:54;;;;;;;7.75;1.65;;;15.10;99.90;;;;;;4906479;29;20028;-76
2022/11/08 12:09:45;;;;;;;6.10;1.95;;;15.30;99.90;;;;;;4893697;29;20043;-72
2022/11/08 12:12:37;;;;;;;3.08;1.38;;;15.40;99.90;;;;;;4910278;29;20039;-76
2022/11/08 12:15:12;;;;;;;7.40;1.92;;;15.50;99.90;;;;;;4908476;29;20047;-75
2022/11/08 12:18:12;;;;;;;7.22;1.58;;;15.50;99.90;;;;;;4904169;29;20037;-75
2022/11/08 12:21:29;;;;;;;4.22;1.60;;;15.60;99.90;;;;;;4892870;29;20412;-74
2022/11/08 12:24:32;;;;;;;3.53;1.83;;;15.60;99.90;;;;;;4870295;29;20056;-74
2022/11/08 12:27:27;;;;;;;5.80;1.38;;;15.50;99.90;;;;;;4908851;29;20109;-75
2022/11/08 12:30:10;;;;;;;5.70;1.35;;;15.50;99.90;;;;;;4910424;29;20092;-74
2022/11/08 12:32:45;;;;;;;3.88;1.38;;;15.50;99.90;;;;;;4893495;29;20033;-77
2022/11/08 12:35:37;;;;;;;3.22;1.55;;;15.40;99.90;;;;;;4909886;29;20065;-76
2022/11/08 12:38:21;;;;;;;3.55;1.55;;;15.40;99.90;;;;;;4909544;29;20452;-75
2022/11/08 12:41:06;;;;;;;2.93;1.33;;;15.40;99.90;;;;;;4889666;29;20037;-73
2022/11/08 12:44:03;;;;;;;2.65;1.35;;;15.40;99.90;;;;;;4905643;29;20040;-74
2022/11/08 12:46:35;;;;;;;5.15;1.40;;;15.40;99.90;;;;;;4892937;29;20465;-76
2022/11/08 12:49:10;;;;;;;1.92;1.10;;;15.30;99.90;;;;;;4909841;29;20035;-75
2022/11/08 12:51:35;;;;;;;6.55;1.40;;;15.30;99.90;;;;;;4909974;29;20025;-75
2022/11/08 12:54:01;;;;;;;6.80;1.48;;;15.30;99.90;;;;;;4892419;29;20032;-76
2022/11/08 12:56:35;;;;;;;5.35;1.55;;;15.30;99.90;;;;;;4909497;29;20470;-75
2022/11/08 12:59:02;;;;;;;10.02;1.63;;;15.20;99.90;;;;;;4892764;29;20029;-76
2022/11/08 13:01:29;;;;;;;3.13;1.42;;;15.30;99.90;;;;;;4908968;29;20093;-78
2022/11/08 13:04:24;;;;;;;4.05;1.10;;;15.30;99.90;;;;;;4892863;29;20032;-74
2022/11/08 13:06:55;;;;;;;4.50;1.50;;;15.30;99.90;;;;;;4888232;29;20032;-73
2022/11/08 13:09:30;;;;;;;3.75;1.42;;;15.30;99.90;;;;;;4892443;29;20096;-76
2022/11/08 13:12:18;;;;;;;2.47;1.42;;;15.30;99.90;;;;;;4892802;29;20472;-76
2022/11/08 13:14:44;;;;;;;8.57;1.70;;;15.40;99.90;;;;;;4863001;29;20037;-76
2022/11/08 13:17:17;;;;;;;2.35;1.30;;;15.30;99.90;;;;;;4892423;29;20040;-74